Time;durP1;ratioP1;P1;durP2;ratioP2;P2;SDS_P1;SDS_P2;PMS_P1;PMS_P2;Temp;Humidity;BMP_temperature;BMP_pressure;BME280_temperature;BME280_humidity;BME280_pressure;Samples;Min_cycle;Max_cycle;Signal;HPM_P1;HPM_P2
2023/01/13 00:02:47;;;;;;;56.22;9.77;;;8.30;99.90;;;;;;4899016;29;20091;-81
2023/01/13 00:05:19;;;;;;;66.28;7.95;;;8.20;99.90;;;;;;4842604;29;20061;-81
2023/01/13 00:07:45;;;;;;;54.90;6.88;;;8.10;99.90;;;;;;4852397;29;20139;-81
2023/01/13 00:10:26;;;;;;;51.33;6.63;;;8.00;99.90;;;;;;4922437;28;20525;-81
2023/01/13 00:12:52;;;;;;;49.95;8.32;;;8.00;99.90;;;;;;4977163;28;20056;-81
2023/01/13 00:15:18;;;;;;;64.22;8.68;;;8.00;99.90;;;;;;4959926;28;20121;-81
2023/01/13 00:17:44;;;;;;;62.00;7.43;;;7.80;99.90;;;;;;5263536;23;20190;-81
2023/01/13 00:20:15;;;;;;;55.72;8.77;;;7.90;99.90;;;;;;4956694;29;20087;-81
2023/01/13 00:22:47;;;;;;;65.70;8.60;;;7.80;99.90;;;;;;4970207;28;20074;-81
2023/01/13 00:25:22;;;;;;;59.08;8.70;;;7.80;99.90;;;;;;4977081;28;20093;-81
2023/01/13 00:35:19;;;;;;;53.13;7.10;;;7.70;99.90;;;;;;4916682;29;20043;-81
2023/01/13 00:38:23;;;;;;;55.60;6.15;;;7.60;99.90;;;;;;4917262;29;20051;-81
2023/01/13 00:44:22;;;;;;;66.00;9.35;;;7.70;99.90;;;;;;4959472;28;20062;-81
2023/01/13 00:46:54;;;;;;;67.00;7.07;;;7.60;99.90;;;;;;4959392;28;20046;-81
2023/01/13 00:49:54;;;;;;;60.85;7.25;;;7.60;99.90;;;;;;4959347;28;20042;-81
2023/01/13 00:57:31;;;;;;;73.47;9.50;;;7.60;99.90;;;;;;5238641;23;20062;-81
2023/01/13 00:59:56;;;;;;;72.68;8.13;;;7.60;99.90;;;;;;4959918;28;20043;-81
2023/01/13 01:02:22;;;;;;;66.15;8.05;;;7.60;99.90;;;;;;4959085;28;20138;-81
2023/01/13 01:04:48;;;;;;;59.63;7.97;;;7.60;99.90;;;;;;4976275;28;20051;-81
2023/01/13 01:07:21;;;;;;;83.88;13.18;;;7.60;99.90;;;;;;4976078;28;20046;-81
2023/01/13 01:09:48;;;;;;;56.85;9.57;;;7.60;99.90;;;;;;4976362;28;20041;-81
2023/01/13 01:14:42;;;;;;;44.60;8.02;;;7.50;99.90;;;;;;5639961;23;21251;-81
2023/01/13 01:17:08;;;;;;;61.13;8.50;;;7.50;99.90;;;;;;4975098;28;20058;-82
2023/01/13 01:22:24;;;;;;;64.00;8.68;;;7.50;99.90;;;;;;5117323;23;20415;-81
2023/01/13 01:28:37;;;;;;;61.55;8.27;;;7.40;99.90;;;;;;4958661;28;20053;-81
2023/01/13 01:31:26;;;;;;;60.55;7.93;;;7.40;99.90;;;;;;4958333;28;20070;-81
2023/01/13 01:34:44;;;;;;;69.10;9.77;;;7.30;99.90;;;;;;4958306;28;20047;-82
2023/01/13 01:37:10;;;;;;;53.90;8.02;;;7.30;99.90;;;;;;5095902;23;20054;-81
2023/01/13 01:39:38;;;;;;;59.92;8.85;;;7.30;99.90;;;;;;4967312;28;20043;-82
2023/01/13 01:45:01;;;;;;;77.40;11.13;;;7.30;99.90;;;;;;4975046;28;20117;-82
2023/01/13 01:47:29;;;;;;;44.58;7.95;;;7.30;99.90;;;;;;4975546;28;20121;-81
2023/01/13 01:49:57;;;;;;;66.80;10.35;;;7.30;99.90;;;;;;4975384;28;20050;-81
2023/01/13 01:55:42;;;;;;;56.90;8.60;;;7.20;99.90;;;;;;4935488;29;20051;-81
2023/01/13 02:01:37;;;;;;;52.92;8.20;;;7.30;99.90;;;;;;4919640;29;20052;-81
2023/01/13 02:07:47;;;;;;;82.28;11.48;;;7.30;99.90;;;;;;4919907;29;20104;-81
2023/01/13 02:10:53;;;;;;;52.65;8.45;;;7.30;99.90;;;;;;4919531;29;20054;-81
2023/01/13 02:13:40;;;;;;;60.92;8.48;;;7.20;99.90;;;;;;5709902;23;20124;-81
2023/01/13 02:27:07;;;;;;;58.65;7.78;;;7.20;99.90;;;;;;4957736;28;20210;-81
2023/01/13 02:33:40;;;;;;;77.85;9.45;;;7.10;99.90;;;;;;4880705;29;20053;-81
2023/01/13 02:36:17;;;;;;;68.95;7.45;;;7.20;99.90;;;;;;4880836;29;20508;-81
2023/01/13 02:38:59;;;;;;;61.15;9.35;;;7.20;99.90;;;;;;4972442;28;20510;-81
2023/01/13 02:44:37;;;;;;;71.78;9.55;;;7.20;99.90;;;;;;4957629;28;20125;-81
2023/01/13 02:49:44;;;;;;;85.70;13.38;;;7.20;99.90;;;;;;5390817;23;20106;-81
2023/01/13 02:52:19;;;;;;;72.78;9.23;;;7.20;99.90;;;;;;4974685;28;20081;-81
2023/01/13 02:54:56;;;;;;;47.85;8.52;;;7.20;99.90;;;;;;4974740;28;20043;-81
2023/01/13 02:57:26;;;;;;;61.70;9.90;;;7.10;99.90;;;;;;4976532;28;20051;-81
2023/01/13 02:59:54;;;;;;;60.13;8.73;;;7.20;99.90;;;;;;4961409;28;20416;-81
2023/01/13 03:02:25;;;;;;;67.25;9.90;;;7.20;99.90;;;;;;4978712;28;20051;-81
2023/01/13 03:05:01;;;;;;;59.85;9.63;;;7.20;99.90;;;;;;4978476;28;20502;-81
2023/01/13 03:07:45;;;;;;;;;;;7.20;99.90;;;;;;4966602;23;20058;-81
2023/01/13 03:10:40;;;;;;;72.57;12.45;;;7.30;99.90;;;;;;4961092;28;20445;-81
2023/01/13 03:13:43;;;;;;;63.60;10.35;;;7.30;99.90;;;;;;4961078;28;20050;-81
2023/01/13 03:16:17;;;;;;;75.55;13.20;;;7.30;99.90;;;;;;4960828;28;20101;-81
2023/01/13 03:19:03;;;;;;;55.22;10.38;;;7.30;99.90;;;;;;4978256;28;20055;-81
2023/01/13 03:22:14;;;;;;;74.72;9.35;;;7.30;99.90;;;;;;4978157;28;20065;-81
2023/01/13 03:25:08;;;;;;;52.15;7.53;;;7.40;99.90;;;;;;4960897;28;20161;-81
2023/01/13 03:27:53;;;;;;;73.15;9.98;;;7.40;99.90;;;;;;4977909;28;20490;-81
2023/01/13 03:30:27;;;;;;;73.00;10.98;;;7.40;99.90;;;;;;4977953;28;20372;-81
2023/01/13 03:32:59;;;;;;;71.60;8.60;;;7.50;99.90;;;;;;4978051;28;20517;-81
2023/01/13 03:35:45;;;;;;;85.03;11.23;;;7.50;99.90;;;;;;4984794;23;20403;-81
2023/01/13 03:38:38;;;;;;;68.80;8.07;;;7.50;99.90;;;;;;4977896;28;20046;-81
2023/01/13 03:44:41;;;;;;;55.88;8.32;;;7.50;99.90;;;;;;4960604;28;20069;-81
2023/01/13 03:47:20;;;;;;;53.47;7.85;;;7.50;99.90;;;;;;4977693;28;20364;-81
2023/01/13 03:50:04;;;;;;;54.60;9.23;;;7.50;99.90;;;;;;4977695;28;20047;-81
2023/01/13 03:52:43;;;;;;;53.88;8.07;;;7.50;99.90;;;;;;4977808;28;20074;-81
2023/01/13 03:55:14;;;;;;;43.70;9.35;;;7.50;99.90;;;;;;4977679;28;20553;-81
2023/01/13 03:58:06;;;;;;;54.38;6.95;;;7.50;99.90;;;;;;4977607;28;20101;-81
2023/01/13 04:00:41;;;;;;;42.00;6.60;;;7.50;99.90;;;;;;4977571;28;20085;-81
2023/01/13 04:03:19;;;;;;;55.60;6.72;;;7.40;99.90;;;;;;4977876;28;20483;-81
2023/01/13 04:05:51;;;;;;;58.70;6.68;;;7.50;99.90;;;;;;4977424;28;20446;-81
2023/01/13 04:08:24;;;;;;;54.63;7.57;;;7.50;99.90;;;;;;4976202;28;20101;-81
2023/01/13 04:11:11;;;;;;;51.63;5.75;;;7.40;99.90;;;;;;4960370;28;20062;-81
2023/01/13 04:13:40;;;;;;;42.60;5.18;;;7.40;99.90;;;;;;4977684;28;20482;-81
2023/01/13 04:16:08;;;;;;;43.75;5.65;;;7.40;99.90;;;;;;4977432;28;20078;-81
2023/01/13 04:18:37;;;;;;;41.30;6.30;;;7.40;99.90;;;;;;4977431;28;20063;-81
2023/01/13 04:21:04;;;;;;;42.60;5.80;;;7.50;99.90;;;;;;4977257;28;20142;-81
2023/01/13 04:23:29;;;;;;;43.38;6.97;;;7.50;99.90;;;;;;4959952;28;20053;-81
2023/01/13 04:25:55;;;;;;;40.75;7.60;;;7.50;99.90;;;;;;4976976;28;20047;-81
2023/01/13 04:28:22;;;;;;;66.35;6.03;;;7.50;99.90;;;;;;4959691;28;20117;-81
2023/01/13 04:30:48;;;;;;;57.15;8.13;;;7.50;99.90;;;;;;4977026;28;20050;-81
2023/01/13 04:33:15;;;;;;;45.17;7.45;;;7.60;99.90;;;;;;4977128;28;20054;-81
2023/01/13 04:35:41;;;;;;;52.72;7.65;;;7.60;99.90;;;;;;4959565;28;20065;-81
2023/01/13 04:38:09;;;;;;;61.55;10.85;;;7.60;99.90;;;;;;4976947;28;20057;-81
2023/01/13 04:40:35;;;;;;;48.05;7.45;;;7.60;99.90;;;;;;4976798;28;20051;-81
2023/01/13 04:43:01;;;;;;;48.70;8.48;;;7.60;99.90;;;;;;4959393;28;20133;-81
2023/01/13 04:45:35;;;;;;;55.78;7.85;;;7.60;99.90;;;;;;4976991;28;20059;-81
2023/01/13 04:48:01;;;;;;;49.45;8.13;;;7.60;99.90;;;;;;4983371;23;20055;-81
2023/01/13 04:50:27;;;;;;;58.95;7.80;;;7.60;99.90;;;;;;4959185;28;20106;-81
2023/01/13 04:52:53;;;;;;;64.88;7.75;;;7.60;99.90;;;;;;4959194;28;20046;-81
2023/01/13 04:55:21;;;;;;;60.70;8.88;;;7.70;99.90;;;;;;4959040;28;20376;-81
2023/01/13 04:57:46;;;;;;;53.63;8.90;;;7.60;99.90;;;;;;4983186;23;20141;-81
2023/01/13 05:00:17;;;;;;;52.47;8.00;;;7.70;99.90;;;;;;4959232;28;20475;-81
2023/01/13 05:02:43;;;;;;;46.72;6.25;;;7.70;99.90;;;;;;4959135;28;20051;-81
2023/01/13 05:05:09;;;;;;;50.17;7.03;;;7.70;99.90;;;;;;4958864;28;20105;-81
2023/01/13 05:07:37;;;;;;;60.95;7.15;;;7.70;99.90;;;;;;4976253;28;20054;-81
2023/01/13 05:10:06;;;;;;;57.30;8.45;;;7.70;99.90;;;;;;4976271;28;20043;-81
2023/01/13 05:18:01;;;;;;;48.83;6.07;;;7.80;99.90;;;;;;4976232;28;20097;-81
2023/01/13 05:20:27;;;;;;;43.55;6.78;;;7.80;99.90;;;;;;4958350;28;20055;-81
2023/01/13 05:25:42;;;;;;;47.63;8.05;;;7.80;99.90;;;;;;4958705;28;20050;-81
2023/01/13 05:28:08;;;;;;;64.78;8.00;;;7.70;99.90;;;;;;4958502;28;20093;-81
2023/01/13 05:30:38;;;;;;;47.35;8.35;;;7.70;99.90;;;;;;4976034;28;20043;-81
2023/01/13 05:33:04;;;;;;;38.30;8.10;;;7.80;99.90;;;;;;4958833;28;20047;-81
2023/01/13 05:35:29;;;;;;;45.65;6.43;;;7.80;99.90;;;;;;4958580;28;20046;-81
2023/01/13 05:37:55;;;;;;;37.80;6.40;;;7.80;99.90;;;;;;4975806;28;20146;-81
2023/01/13 05:43:20;;;;;;;48.25;5.57;;;7.80;99.90;;;;;;4975680;28;20051;-81
2023/01/13 05:45:47;;;;;;;44.65;7.03;;;7.80;99.90;;;;;;4975707;28;20051;-81
2023/01/13 05:48:24;;;;;;;34.25;5.72;;;7.80;99.90;;;;;;4958315;28;20081;-81
2023/01/13 05:50:53;;;;;;;52.78;5.60;;;7.80;99.90;;;;;;4958338;28;20055;-81
2023/01/13 05:53:19;;;;;;;45.60;6.95;;;7.80;99.90;;;;;;4958080;28;20085;-81
2023/01/13 05:55:45;;;;;;;36.90;6.55;;;7.70;99.90;;;;;;4975172;28;20121;-81
2023/01/13 05:58:14;;;;;;;37.42;6.90;;;7.70;99.90;;;;;;4975256;28;20495;-81
2023/01/13 06:00:40;;;;;;;43.70;5.95;;;7.60;99.90;;;;;;4975440;28;20050;-82
2023/01/13 06:03:05;;;;;;;37.75;6.10;;;7.60;99.90;;;;;;4958333;28;20046;-81
2023/01/13 06:05:32;;;;;;;45.70;6.22;;;7.60;99.90;;;;;;4975321;28;20469;-81
2023/01/13 06:07:59;;;;;;;46.78;7.00;;;7.60;99.90;;;;;;4957968;28;20462;-81
2023/01/13 06:10:26;;;;;;;51.92;8.93;;;7.60;99.90;;;;;;4957756;28;20163;-81
2023/01/13 06:12:52;;;;;;;35.88;7.95;;;7.60;99.90;;;;;;4957854;28;20054;-81
2023/01/13 06:15:18;;;;;;;42.10;6.03;;;7.60;99.90;;;;;;4975181;28;20039;-81
2023/01/13 06:17:43;;;;;;;35.10;4.80;;;7.60;99.90;;;;;;4957898;28;20483;-81
2023/01/13 06:20:10;;;;;;;43.97;6.28;;;7.50;99.90;;;;;;4974902;28;20055;-82
2023/01/13 06:22:39;;;;;;;45.60;5.88;;;7.50;99.90;;;;;;4988790;23;20029;-81
2023/01/13 06:25:27;;;;;;;46.38;8.32;;;7.40;99.90;;;;;;4957747;28;20047;-82
2023/01/13 06:27:55;;;;;;;48.97;7.28;;;7.40;99.90;;;;;;4974873;28;20520;-82
2023/01/13 06:30:21;;;;;;;37.67;6.45;;;7.40;99.90;;;;;;4974995;28;20178;-82
2023/01/13 06:32:54;;;;;;;43.95;5.28;;;7.40;99.90;;;;;;4957193;28;20130;-82
2023/01/13 06:35:22;;;;;;;;;;;7.30;99.90;;;;;;4975157;28;20055;-82
2023/01/13 06:37:50;;;;;;;50.03;6.60;;;7.30;99.90;;;;;;4974826;28;19922;-83
2023/01/13 06:40:17;;;;;;;26.70;4.90;;;7.30;99.90;;;;;;4957836;28;20050;-82
2023/01/13 06:45:28;;;;;;;37.50;4.68;;;7.40;99.90;;;;;;4957419;28;20083;-82
2023/01/13 06:47:56;;;;;;;37.63;5.43;;;7.30;99.90;;;;;;4957554;28;20057;-82
2023/01/13 06:50:22;;;;;;;50.95;6.47;;;7.40;99.90;;;;;;4974884;28;20047;-82
2023/01/13 06:52:47;;;;;;;47.35;6.97;;;7.40;99.90;;;;;;4974713;28;20090;-82
2023/01/13 06:55:13;;;;;;;43.05;5.90;;;7.40;99.90;;;;;;4974803;28;20050;-82
2023/01/13 06:57:59;;;;;;;52.10;7.53;;;7.30;99.90;;;;;;4957461;28;20046;-82
2023/01/13 07:00:25;;;;;;;52.75;7.13;;;7.30;99.90;;;;;;4957127;28;20058;-82
2023/01/13 07:02:53;;;;;;;49.60;8.68;;;7.40;99.90;;;;;;4974825;28;20059;-82
2023/01/13 07:05:19;;;;;;;49.60;7.38;;;7.30;99.90;;;;;;4974476;28;20082;-82
2023/01/13 07:07:48;;;;;;;54.65;9.63;;;7.30;99.90;;;;;;4957523;28;20478;-82
2023/01/13 07:10:21;;;;;;;47.35;6.18;;;7.30;99.90;;;;;;4975126;28;20627;-82
2023/01/13 07:15:34;;;;;;;45.15;7.38;;;7.30;99.90;;;;;;4957186;28;20503;-82
2023/01/13 07:18:04;;;;;;;40.72;5.32;;;7.30;99.90;;;;;;4974454;28;20082;-82
2023/01/13 07:20:29;;;;;;;46.20;6.38;;;7.30;99.90;;;;;;4974486;28;20070;-81
2023/01/13 07:22:57;;;;;;;35.75;5.68;;;7.30;99.90;;;;;;4956944;28;20087;-81
2023/01/13 07:25:23;;;;;;;42.67;5.07;;;7.30;99.90;;;;;;4957034;28;20097;-81
2023/01/13 07:27:49;;;;;;;44.83;6.90;;;7.30;99.90;;;;;;4974430;28;20129;-81
2023/01/13 07:30:17;;;;;;;32.05;5.72;;;7.30;99.90;;;;;;4974485;28;20130;-81
2023/01/13 07:32:43;;;;;;;45.05;5.63;;;7.30;99.90;;;;;;4974382;28;20105;-81
2023/01/13 07:35:09;;;;;;;32.63;5.68;;;7.30;99.90;;;;;;4974213;28;20427;-81
2023/01/13 07:37:42;;;;;;;45.95;5.95;;;7.40;99.90;;;;;;4974187;28;20051;-81
2023/01/13 07:40:08;;;;;;;;;;;7.40;99.90;;;;;;4974742;28;20089;-81
2023/01/13 07:45:25;;;;;;;51.38;7.90;;;7.40;99.90;;;;;;4960429;28;20058;-81
2023/01/13 07:47:52;;;;;;;33.92;5.53;;;7.40;99.90;;;;;;4976892;28;20395;-81
2023/01/13 07:50:17;;;;;;;34.05;4.88;;;7.40;99.90;;;;;;4977846;28;20049;-81
2023/01/13 07:52:43;;;;;;;43.70;5.18;;;7.40;99.90;;;;;;4960280;28;20063;-79
2023/01/13 07:55:10;;;;;;;45.03;5.03;;;7.40;99.90;;;;;;4977385;28;20506;-81
2023/01/13 07:57:35;;;;;;;48.30;7.38;;;7.50;99.90;;;;;;4977200;28;20130;-81
2023/01/13 08:00:03;;;;;;;52.95;6.18;;;7.60;99.90;;;;;;4977269;28;20118;-80
2023/01/13 08:02:29;;;;;;;42.58;6.43;;;7.60;99.90;;;;;;4977531;28;20093;-80
2023/01/13 08:04:58;;;;;;;43.70;5.10;;;7.60;99.90;;;;;;4959931;28;20043;-81
2023/01/13 08:07:23;;;;;;;41.03;5.55;;;7.60;99.90;;;;;;4977070;28;20054;-80
2023/01/13 08:09:49;;;;;;;39.03;4.93;;;7.60;99.90;;;;;;4977164;28;20394;-84
2023/01/13 08:14:59;;;;;;;43.55;6.78;;;7.60;99.90;;;;;;4977431;28;20043;-80
2023/01/13 08:17:24;;;;;;;46.25;6.75;;;7.70;99.90;;;;;;4977063;28;20051;-80
2023/01/13 08:19:50;;;;;;;54.80;7.78;;;7.70;99.90;;;;;;4959725;28;20050;-80
2023/01/13 08:22:16;;;;;;;39.42;4.75;;;7.70;99.90;;;;;;4976815;28;20042;-88
2023/01/13 08:24:41;;;;;;;45.55;5.63;;;7.70;99.90;;;;;;4976701;28;20097;-80
2023/01/13 08:27:08;;;;;;;50.33;7.35;;;7.70;99.90;;;;;;4959577;28;20066;-81
2023/01/13 08:29:34;;;;;;;40.47;8.57;;;7.70;99.90;;;;;;4976951;28;20046;-81
2023/01/13 08:31:59;;;;;;;45.22;6.35;;;7.80;99.90;;;;;;4976663;28;20042;-81
2023/01/13 08:34:25;;;;;;;32.05;5.13;;;7.70;99.90;;;;;;4976428;28;20039;-81
2023/01/13 08:36:51;;;;;;;47.85;5.38;;;7.70;99.90;;;;;;4976633;28;20034;-81
2023/01/13 08:39:17;;;;;;;43.97;6.15;;;7.70;99.90;;;;;;4976590;28;20483;-81
2023/01/13 08:41:55;;;;;;;42.03;4.93;;;7.60;99.90;;;;;;4976321;28;20117;-81
2023/01/13 08:44:26;;;;;;;47.08;6.10;;;7.60;99.90;;;;;;4976860;28;20051;-81
2023/01/13 08:46:52;;;;;;;54.88;6.85;;;7.70;99.90;;;;;;4975328;28;20169;-81
2023/01/13 08:49:19;;;;;;;43.42;5.70;;;7.60;99.90;;;;;;4976517;28;20046;-82
2023/01/13 08:51:44;;;;;;;51.17;8.77;;;7.60;99.90;;;;;;4975592;28;20054;-84
2023/01/13 08:54:11;;;;;;;66.85;7.35;;;7.50;99.90;;;;;;4958375;28;20083;-84
2023/01/13 08:56:37;;;;;;;45.28;8.85;;;7.50;99.90;;;;;;4976312;28;20054;-87
2023/01/13 08:59:03;;;;;;;54.17;7.60;;;7.50;99.90;;;;;;4976350;28;20047;-83
2023/01/13 09:01:29;;;;;;;46.20;6.85;;;7.40;99.90;;;;;;4958989;28;20038;-83
2023/01/13 09:03:55;;;;;;;47.63;6.95;;;7.40;99.90;;;;;;4976307;28;20047;-83
2023/01/13 09:06:23;;;;;;;55.47;7.28;;;7.40;99.90;;;;;;4958588;28;20058;-85
2023/01/13 09:08:49;;;;;;;39.92;5.65;;;7.40;99.90;;;;;;4975827;28;20047;-83
2023/01/13 09:14:04;;;;;;;52.42;6.00;;;7.30;99.90;;;;;;4975948;28;20108;-83
2023/01/13 09:16:29;;;;;;;44.80;6.00;;;7.40;99.90;;;;;;4958470;28;20043;-83
2023/01/13 09:18:55;;;;;;;40.65;5.63;;;7.50;99.90;;;;;;4975562;28;20140;-83
2023/01/13 09:21:21;;;;;;;40.15;4.65;;;7.50;99.90;;;;;;4975892;28;20034;-83
2023/01/13 09:23:47;;;;;;;48.25;7.47;;;7.50;99.90;;;;;;4958239;28;20062;-83
2023/01/13 09:26:18;;;;;;;55.25;6.90;;;7.50;99.90;;;;;;4975949;28;20042;-82
2023/01/13 09:28:44;;;;;;;58.08;7.43;;;7.50;99.90;;;;;;4958236;28;20078;-82
2023/01/13 09:31:10;;;;;;;44.80;5.93;;;7.50;99.90;;;;;;4975528;28;20078;-82
2023/01/13 09:36:20;;;;;;;50.50;8.27;;;7.50;99.90;;;;;;4975716;28;20047;-82
2023/01/13 09:38:48;;;;;;;45.15;5.88;;;7.50;99.90;;;;;;4958123;28;20054;-83
2023/01/13 09:44:47;;;;;;;48.90;7.10;;;7.50;99.90;;;;;;4975143;28;20043;-83
2023/01/13 09:47:29;;;;;;;44.38;6.25;;;7.50;99.90;;;;;;4943980;28;20070;-83
2023/01/13 09:50:15;;;;;;;45.28;6.10;;;7.50;99.90;;;;;;4975335;28;20046;-83
2023/01/13 09:52:42;;;;;;;41.55;5.90;;;7.50;99.90;;;;;;4957931;28;20113;-83
2023/01/13 09:55:21;;;;;;;55.88;7.35;;;7.40;99.90;;;;;;4975076;28;20057;-82
2023/01/13 09:57:49;;;;;;;45.10;6.18;;;7.50;99.90;;;;;;4975353;28;20043;-82
2023/01/13 10:00:33;;;;;;;40.00;6.57;;;7.40;99.90;;;;;;4975087;28;20043;-82
2023/01/13 10:03:17;;;;;;;48.95;6.47;;;7.50;99.90;;;;;;4974945;28;20055;-85
2023/01/13 10:05:49;;;;;;;66.47;8.45;;;7.50;99.90;;;;;;4974886;28;20093;-83
2023/01/13 10:08:31;;;;;;;40.28;6.15;;;7.40;99.90;;;;;;4974679;28;20043;-84
2023/01/13 10:14:27;;;;;;;41.80;6.57;;;7.40;99.90;;;;;;4974914;28;20047;-81
2023/01/13 10:17:26;;;;;;;62.72;7.47;;;7.60;99.90;;;;;;4974770;28;20090;-81
2023/01/13 10:20:11;;;;;;;64.13;7.00;;;7.60;99.90;;;;;;4957370;28;20443;-84
2023/01/13 10:22:47;;;;;;;32.25;5.65;;;7.50;99.90;;;;;;4957315;28;20141;-83
2023/01/13 10:25:29;;;;;;;40.88;6.55;;;7.60;99.90;;;;;;4974863;28;20057;-83
2023/01/13 10:28:00;;;;;;;32.75;4.90;;;7.70;99.90;;;;;;4957581;28;20055;-83
2023/01/13 10:30:32;;;;;;;44.13;5.72;;;7.80;99.90;;;;;;4957550;28;20065;-83
2023/01/13 10:33:00;;;;;;;33.05;5.63;;;7.80;99.90;;;;;;4974936;28;20062;-82
2023/01/13 10:36:01;;;;;;;46.33;7.53;;;7.80;99.90;;;;;;4957456;28;20133;-82
2023/01/13 10:38:34;;;;;;;29.65;5.45;;;7.80;99.90;;;;;;4974548;28;20046;-82
2023/01/13 10:41:05;;;;;;;;;;;7.80;99.90;;;;;;4975121;28;20043;-82
2023/01/13 10:43:31;;;;;;;38.42;5.13;;;7.80;99.90;;;;;;4974241;28;19922;-82
2023/01/13 10:46:03;;;;;;;38.10;5.57;;;7.90;99.90;;;;;;4968606;23;20055;-82
2023/01/13 10:48:37;;;;;;;38.53;4.70;;;8.00;99.90;;;;;;4936405;29;20052;-82
2023/01/13 10:51:13;;;;;;;42.22;6.47;;;8.00;99.90;;;;;;4955061;29;20086;-82
2023/01/13 10:54:11;;;;;;;30.60;5.43;;;7.90;99.90;;;;;;4937792;29;20043;-82
2023/01/13 10:56:42;;;;;;;37.10;5.47;;;7.90;99.90;;;;;;4941405;29;20499;-84
2023/01/13 10:59:27;;;;;;;34.33;5.43;;;7.90;99.90;;;;;;4937972;29;20138;-84
2023/01/13 11:02:16;;;;;;;43.47;6.75;;;8.00;99.90;;;;;;4938091;29;20098;-84
2023/01/13 11:04:56;;;;;;;63.63;8.38;;;8.00;99.90;;;;;;4938114;29;20495;-82
2023/01/13 11:07:30;;;;;;;34.53;6.05;;;8.00;99.90;;;;;;4957652;28;20039;-82
2023/01/13 11:10:21;;;;;;;34.67;5.72;;;8.10;99.90;;;;;;4937725;29;20039;-82
2023/01/13 11:13:20;;;;;;;44.53;6.25;;;8.00;99.90;;;;;;4937813;29;20094;-81
2023/01/13 11:16:01;;;;;;;46.20;5.93;;;8.10;99.90;;;;;;4969899;28;20043;-81
2023/01/13 11:19:01;;;;;;;33.22;4.68;;;8.10;99.90;;;;;;4956629;28;20508;-81
2023/01/13 11:21:48;;;;;;;41.13;5.22;;;8.10;99.90;;;;;;4958595;28;20047;-81
2023/01/13 11:24:38;;;;;;;27.92;7.32;;;8.10;99.90;;;;;;4958615;29;20407;-81
2023/01/13 11:27:20;;;;;;;41.83;6.72;;;8.20;99.90;;;;;;4956907;29;20058;-81
2023/01/13 11:30:08;;;;;;;40.95;5.85;;;8.20;99.90;;;;;;4922157;29;20576;-82
2023/01/13 11:32:47;;;;;;;44.10;5.72;;;8.20;99.90;;;;;;4964191;28;20051;-82
2023/01/13 11:35:18;;;;;;;39.22;5.57;;;8.20;99.90;;;;;;4950868;29;20122;-82
2023/01/13 11:38:06;;;;;;;26.48;4.30;;;8.10;99.90;;;;;;4958083;29;20399;-83
2023/01/13 11:40:41;;;;;;;38.28;5.35;;;8.00;99.90;;;;;;4912063;29;20070;-83
2023/01/13 11:43:40;;;;;;;54.10;8.10;;;8.00;99.90;;;;;;4958193;29;20143;-83
2023/01/13 11:46:08;;;;;;;37.28;5.30;;;8.10;99.90;;;;;;4957937;29;20058;-83
2023/01/13 11:48:40;;;;;;;37.88;6.18;;;8.00;99.90;;;;;;4957319;28;20051;-80
2023/01/13 11:51:35;;;;;;;42.03;5.72;;;8.00;99.90;;;;;;4957069;29;20499;-80
2023/01/13 11:57:23;;;;;;;;;;;8.00;99.90;;;;;;4984848;23;20133;-81
2023/01/13 12:00:13;;;;;;;38.08;5.07;;;8.00;99.90;;;;;;4975097;28;19977;-81
2023/01/13 12:03:16;;;;;;;34.83;6.25;;;7.90;99.90;;;;;;4977319;28;20078;-81
2023/01/13 12:06:09;;;;;;;25.27;5.78;;;7.90;99.90;;;;;;4977254;28;20069;-79
2023/01/13 12:08:37;;;;;;;41.25;6.70;;;7.90;99.90;;;;;;4977084;28;20407;-83
2023/01/13 12:11:18;;;;;;;47.10;6.28;;;8.00;99.90;;;;;;4959715;28;20056;-82
2023/01/13 12:14:03;;;;;;;48.65;7.07;;;8.00;99.90;;;;;;4959709;28;20046;-80
2023/01/13 12:16:30;;;;;;;34.10;5.00;;;8.00;99.90;;;;;;4977049;28;20130;-80
2023/01/13 12:19:24;;;;;;;45.28;5.43;;;8.00;99.90;;;;;;4959211;28;20059;-80
2023/01/13 12:22:13;;;;;;;45.72;8.18;;;8.10;99.90;;;;;;4959760;28;20054;-82
2023/01/13 12:24:52;;;;;;;36.15;4.88;;;8.10;99.90;;;;;;4959142;28;20131;-81
2023/01/13 12:27:52;;;;;;;25.95;4.25;;;8.10;99.90;;;;;;5095824;23;20054;-81
2023/01/13 12:30:35;;;;;;;29.42;5.63;;;8.10;99.90;;;;;;4975865;28;20064;-82
2023/01/13 12:33:23;;;;;;;34.17;5.65;;;8.10;99.90;;;;;;4976766;28;20514;-82
2023/01/13 12:36:14;;;;;;;40.85;8.20;;;8.20;99.90;;;;;;4976670;28;20544;-81
2023/01/13 12:38:47;;;;;;;30.67;5.55;;;8.20;99.90;;;;;;4976540;28;20482;-81
2023/01/13 12:41:34;;;;;;;34.63;4.85;;;8.20;99.90;;;;;;4976410;28;20047;-82
2023/01/13 12:44:19;;;;;;;40.72;6.85;;;8.20;99.90;;;;;;4976469;28;20509;-81
2023/01/13 12:46:49;;;;;;;43.60;6.25;;;8.30;99.90;;;;;;4976550;28;20093;-81
2023/01/13 12:49:24;;;;;;;34.63;4.32;;;8.30;99.90;;;;;;4959344;28;20051;-81
2023/01/13 12:51:55;;;;;;;38.13;6.22;;;8.30;99.90;;;;;;4976438;28;20055;-81
2023/01/13 12:54:29;;;;;;;30.63;5.25;;;8.30;99.90;;;;;;4976313;28;20071;-81
2023/01/13 12:56:58;;;;;;;36.15;5.15;;;8.20;99.90;;;;;;4958691;28;20074;-82
2023/01/13 12:59:24;;;;;;;27.05;4.88;;;8.30;99.90;;;;;;4959010;28;20058;-81
2023/01/13 13:02:11;;;;;;;35.80;5.80;;;8.30;99.90;;;;;;5119688;23;20384;-81
2023/01/13 13:05:23;;;;;;;37.05;5.18;;;8.30;99.90;;;;;;5122734;23;20062;-82
2023/01/13 13:08:23;;;;;;;44.03;6.75;;;8.40;99.90;;;;;;4958569;28;20138;-82
2023/01/13 13:14:38;;;;;;;36.92;5.38;;;8.40;99.90;;;;;;4897521;29;20139;-80
2023/01/13 13:17:32;;;;;;;32.17;6.25;;;8.30;99.90;;;;;;4934703;28;20085;-80
2023/01/13 13:20:24;;;;;;;32.88;5.78;;;8.30;99.90;;;;;;4958752;28;20051;-81
2023/01/13 13:22:50;;;;;;;34.80;6.47;;;8.40;99.90;;;;;;4975442;28;20109;-81
2023/01/13 13:25:24;;;;;;;32.60;4.97;;;8.40;99.90;;;;;;4958602;28;20050;-81
2023/01/13 13:28:16;;;;;;;36.83;6.10;;;8.40;99.90;;;;;;4975688;28;20109;-86
2023/01/13 13:30:51;;;;;;;33.08;4.63;;;8.40;99.90;;;;;;4958311;28;20054;-80
2023/01/13 13:33:42;;;;;;;35.60;6.18;;;8.40;99.90;;;;;;4975420;28;20074;-83
2023/01/13 13:36:26;;;;;;;40.85;6.50;;;8.30;99.90;;;;;;4975597;28;20043;-82
2023/01/13 13:48:24;;;;;;;40.35;5.57;;;8.20;99.90;;;;;;4975443;28;20050;-83
2023/01/13 13:50:56;;;;;;;29.52;5.50;;;8.20;99.90;;;;;;4958246;28;20109;-80
2023/01/13 13:56:06;;;;;;;35.60;5.43;;;8.30;99.90;;;;;;5307583;23;20498;-80
2023/01/13 13:58:41;;;;;;;41.85;6.28;;;8.20;99.90;;;;;;4957669;28;20057;-80
2023/01/13 14:01:18;;;;;;;32.88;4.70;;;8.20;99.90;;;;;;4957716;28;20053;-81
2023/01/13 14:03:43;;;;;;;37.78;5.32;;;8.10;99.90;;;;;;4975248;28;20121;-83
2023/01/13 14:06:23;;;;;;;44.78;5.80;;;8.10;99.90;;;;;;4975054;28;20109;-82
2023/01/13 14:08:49;;;;;;;44.72;6.95;;;8.00;99.90;;;;;;4974905;28;20050;-80
2023/01/13 14:11:26;;;;;;;35.00;5.40;;;8.10;99.90;;;;;;4974891;28;20129;-79
2023/01/13 14:14:16;;;;;;;33.13;5.13;;;8.10;99.90;;;;;;4957712;28;20039;-82
2023/01/13 14:16:42;;;;;;;28.95;4.10;;;8.10;99.90;;;;;;4974637;28;20051;-81
2023/01/13 14:19:28;;;;;;;35.03;5.55;;;8.10;99.90;;;;;;4974741;28;20058;-82
2023/01/13 14:22:01;;;;;;;44.17;6.50;;;8.10;99.90;;;;;;4974941;28;20050;-82
2023/01/13 14:24:31;;;;;;;28.08;4.50;;;8.10;99.90;;;;;;4957427;28;20055;-82
2023/01/13 14:27:13;;;;;;;29.08;4.32;;;8.00;99.90;;;;;;4957331;28;20094;-81
2023/01/13 14:29:39;;;;;;;28.40;5.95;;;8.10;99.90;;;;;;4957651;28;20561;-79
2023/01/13 14:32:06;;;;;;;30.10;6.22;;;8.00;99.90;;;;;;4974738;28;20118;-86
2023/01/13 14:34:33;;;;;;;28.00;5.38;;;8.00;99.90;;;;;;4957571;28;20141;-79
2023/01/13 14:36:59;;;;;;;39.28;5.88;;;8.00;99.90;;;;;;4957330;28;20042;-79
2023/01/13 14:39:34;;;;;;;59.45;7.80;;;7.90;99.90;;;;;;4974270;28;20407;-80
2023/01/13 14:41:59;;;;;;;35.22;4.30;;;7.80;99.90;;;;;;4956810;28;20139;-82
2023/01/13 14:44:28;;;;;;;31.67;4.90;;;7.80;99.90;;;;;;4974203;28;20141;-81
2023/01/13 14:46:59;;;;;;;23.25;3.40;;;7.70;99.90;;;;;;4974283;28;20051;-81
2023/01/13 14:49:42;;;;;;;17.38;2.38;;;7.70;99.90;;;;;;4957380;28;20527;-82
2023/01/13 14:52:20;;;;;;;24.95;2.67;;;7.70;99.90;;;;;;4974094;28;20066;-83
2023/01/13 14:54:47;;;;;;;28.88;4.93;;;7.70;99.90;;;;;;5017443;23;20079;-81
2023/01/13 14:57:53;;;;;;;23.10;3.60;;;7.60;99.90;;;;;;4956550;28;20422;-80
2023/01/13 15:00:20;;;;;;;25.58;3.45;;;7.60;99.90;;;;;;4940719;28;20138;-82
2023/01/13 15:02:52;;;;;;;34.08;4.78;;;7.60;99.90;;;;;;4957380;28;20047;-80
2023/01/13 15:05:18;;;;;;;31.08;2.78;;;7.60;99.90;;;;;;4957068;28;20502;-79
2023/01/13 15:07:58;;;;;;;25.50;4.15;;;7.60;99.90;;;;;;4957219;28;20062;-79
2023/01/13 15:10:44;;;;;;;37.92;4.55;;;7.60;99.90;;;;;;4974162;28;20448;-79
2023/01/13 15:13:43;;;;;;;23.90;4.38;;;7.60;99.90;;;;;;4974087;28;20399;-80
2023/01/13 15:16:19;;;;;;;40.47;7.45;;;7.60;99.90;;;;;;4941334;28;20051;-79
2023/01/13 15:18:45;;;;;;;41.33;7.68;;;7.60;99.90;;;;;;4956886;28;20194;-81
2023/01/13 15:21:11;;;;;;;37.63;5.80;;;7.60;99.90;;;;;;4973209;28;20574;-80